sensor_id;sensor_type;location;lat;lon;timestamp;P1;durP1;ratioP1;P2;durP2;ratioP2
58990;SDS011;44781;53.444;14.476;2023-05-18T00:00:38;7.80;;;2.50;;
58990;SDS011;44781;53.444;14.476;2023-05-18T00:03:18;7.00;;;2.70;;
58990;SDS011;44781;53.444;14.476;2023-05-18T00:05:45;6.70;;;2.20;;
58990;SDS011;44781;53.444;14.476;2023-05-18T00:08:12;8.00;;;2.50;;
58990;SDS011;44781;53.444;14.476;2023-05-18T00:10:39;5.30;;;2.40;;
58990;SDS011;44781;53.444;14.476;2023-05-18T00:13:06;6.20;;;2.50;;
58990;SDS011;44781;53.444;14.476;2023-05-18T00:15:34;7.20;;;2.50;;
58990;SDS011;44781;53.444;14.476;2023-05-18T00:18:01;5.50;;;2.50;;
58990;SDS011;44781;53.444;14.476;2023-05-18T00:20:28;6.20;;;2.20;;
58990;SDS011;44781;53.444;14.476;2023-05-18T00:22:55;8.50;;;2.40;;
58990;SDS011;44781;53.444;14.476;2023-05-18T00:25:22;6.60;;;2.10;;
58990;SDS011;44781;53.444;14.476;2023-05-18T00:27:49;6.10;;;2.10;;
58990;SDS011;44781;53.444;14.476;2023-05-18T00:30:18;6.00;;;2.20;;
58990;SDS011;44781;53.444;14.476;2023-05-18T00:32:48;8.70;;;2.20;;
58990;SDS011;44781;53.444;14.476;2023-05-18T00:35:15;5.70;;;2.30;;
58990;SDS011;44781;53.444;14.476;2023-05-18T00:37:42;9.80;;;2.20;;
58990;SDS011;44781;53.444;14.476;2023-05-18T00:40:10;3.90;;;1.70;;
58990;SDS011;44781;53.444;14.476;2023-05-18T00:42:37;6.40;;;2.10;;
58990;SDS011;44781;53.444;14.476;2023-05-18T00:45:04;5.90;;;1.80;;
58990;SDS011;44781;53.444;14.476;2023-05-18T00:47:32;5.30;;;1.80;;
58990;SDS011;44781;53.444;14.476;2023-05-18T00:49:59;6.60;;;1.80;;
58990;SDS011;44781;53.444;14.476;2023-05-18T00:52:26;5.70;;;1.90;;
58990;SDS011;44781;53.444;14.476;2023-05-18T00:54:53;5.80;;;1.60;;
58990;SDS011;44781;53.444;14.476;2023-05-18T00:57:23;5.50;;;2.10;;
58990;SDS011;44781;53.444;14.476;2023-05-18T00:59:51;7.20;;;1.80;;
58990;SDS011;44781;53.444;14.476;2023-05-18T01:02:18;6.40;;;1.70;;
58990;SDS011;44781;53.444;14.476;2023-05-18T01:04:45;6.80;;;1.70;;
58990;SDS011;44781;53.444;14.476;2023-05-18T01:07:12;7.10;;;2.10;;
58990;SDS011;44781;53.444;14.476;2023-05-18T01:09:42;7.70;;;1.90;;
58990;SDS011;44781;53.444;14.476;2023-05-18T01:12:16;6.10;;;1.90;;
58990;SDS011;44781;53.444;14.476;2023-05-18T01:20:31;6.50;;;2.20;;
58990;SDS011;44781;53.444;14.476;2023-05-18T01:25:48;8.50;;;2.40;;
58990;SDS011;44781;53.444;14.476;2023-05-18T01:28:24;6.50;;;1.90;;
58990;SDS011;44781;53.444;14.476;2023-05-18T01:30:58;4.70;;;1.90;;
58990;SDS011;44781;53.444;14.476;2023-05-18T01:33:25;7.60;;;2.00;;
58990;SDS011;44781;53.444;14.476;2023-05-18T01:35:52;6.60;;;2.00;;
58990;SDS011;44781;53.444;14.476;2023-05-18T01:38:21;6.10;;;2.20;;
58990;SDS011;44781;53.444;14.476;2023-05-18T01:43:38;7.90;;;2.10;;
58990;SDS011;44781;53.444;14.476;2023-05-18T01:46:18;7.30;;;1.70;;
58990;SDS011;44781;53.444;14.476;2023-05-18T01:48:53;6.70;;;2.00;;
58990;SDS011;44781;53.444;14.476;2023-05-18T01:51:25;6.00;;;1.90;;
58990;SDS011;44781;53.444;14.476;2023-05-18T01:54:02;8.10;;;1.80;;
58990;SDS011;44781;53.444;14.476;2023-05-18T01:56:33;5.80;;;1.80;;
58990;SDS011;44781;53.444;14.476;2023-05-18T01:59:01;7.10;;;2.00;;
58990;SDS011;44781;53.444;14.476;2023-05-18T02:01:31;8.00;;;2.40;;
58990;SDS011;44781;53.444;14.476;2023-05-18T02:04:01;5.30;;;1.90;;
58990;SDS011;44781;53.444;14.476;2023-05-18T02:06:29;6.10;;;2.10;;
58990;SDS011;44781;53.444;14.476;2023-05-18T02:08:57;7.60;;;2.20;;
58990;SDS011;44781;53.444;14.476;2023-05-18T02:11:24;4.90;;;2.00;;
58990;SDS011;44781;53.444;14.476;2023-05-18T02:13:53;6.90;;;2.00;;
58990;SDS011;44781;53.444;14.476;2023-05-18T02:16:21;5.80;;;2.40;;
58990;SDS011;44781;53.444;14.476;2023-05-18T02:18:47;6.20;;;2.00;;
58990;SDS011;44781;53.444;14.476;2023-05-18T02:21:14;5.60;;;1.70;;
58990;SDS011;44781;53.444;14.476;2023-05-18T02:23:41;4.70;;;1.80;;
58990;SDS011;44781;53.444;14.476;2023-05-18T02:26:08;5.80;;;1.90;;
58990;SDS011;44781;53.444;14.476;2023-05-18T02:28:36;6.00;;;1.90;;
58990;SDS011;44781;53.444;14.476;2023-05-18T02:31:06;6.60;;;2.30;;
58990;SDS011;44781;53.444;14.476;2023-05-18T02:33:35;4.80;;;1.90;;
58990;SDS011;44781;53.444;14.476;2023-05-18T02:36:09;6.00;;;1.60;;
58990;SDS011;44781;53.444;14.476;2023-05-18T02:38:45;7.10;;;2.20;;
58990;SDS011;44781;53.444;14.476;2023-05-18T02:41:15;6.70;;;2.30;;
58990;SDS011;44781;53.444;14.476;2023-05-18T02:43:41;8.40;;;2.30;;
58990;SDS011;44781;53.444;14.476;2023-05-18T02:46:08;7.60;;;2.70;;
58990;SDS011;44781;53.444;14.476;2023-05-18T02:48:35;6.20;;;1.60;;
58990;SDS011;44781;53.444;14.476;2023-05-18T02:51:02;7.70;;;2.20;;
58990;SDS011;44781;53.444;14.476;2023-05-18T02:53:29;7.60;;;2.40;;
58990;SDS011;44781;53.444;14.476;2023-05-18T02:56:01;8.10;;;2.20;;
58990;SDS011;44781;53.444;14.476;2023-05-18T02:58:35;8.50;;;3.30;;
58990;SDS011;44781;53.444;14.476;2023-05-18T03:01:25;6.50;;;2.00;;
58990;SDS011;44781;53.444;14.476;2023-05-18T03:03:53;6.20;;;2.20;;
58990;SDS011;44781;53.444;14.476;2023-05-18T03:06:23;7.70;;;2.30;;
58990;SDS011;44781;53.444;14.476;2023-05-18T03:08:52;4.70;;;2.20;;
58990;SDS011;44781;53.444;14.476;2023-05-18T03:11:25;6.40;;;2.20;;
58990;SDS011;44781;53.444;14.476;2023-05-18T03:13:52;8.10;;;2.10;;
58990;SDS011;44781;53.444;14.476;2023-05-18T03:16:18;8.90;;;2.00;;
58990;SDS011;44781;53.444;14.476;2023-05-18T03:18:53;6.30;;;1.90;;
58990;SDS011;44781;53.444;14.476;2023-05-18T03:23:51;6.00;;;1.80;;
58990;SDS011;44781;53.444;14.476;2023-05-18T03:26:18;5.60;;;2.20;;
58990;SDS011;44781;53.444;14.476;2023-05-18T03:28:48;7.20;;;2.10;;
58990;SDS011;44781;53.444;14.476;2023-05-18T03:31:15;8.00;;;2.10;;
58990;SDS011;44781;53.444;14.476;2023-05-18T03:33:42;7.00;;;2.00;;
58990;SDS011;44781;53.444;14.476;2023-05-18T03:36:09;6.60;;;2.20;;
58990;SDS011;44781;53.444;14.476;2023-05-18T03:38:36;12.40;;;2.30;;
58990;SDS011;44781;53.444;14.476;2023-05-18T03:41:07;10.10;;;2.30;;
58990;SDS011;44781;53.444;14.476;2023-05-18T03:43:34;9.60;;;2.20;;
58990;SDS011;44781;53.444;14.476;2023-05-18T03:46:01;7.90;;;2.20;;
58990;SDS011;44781;53.444;14.476;2023-05-18T03:48:28;9.00;;;2.10;;
58990;SDS011;44781;53.444;14.476;2023-05-18T03:50:55;7.20;;;2.20;;
58990;SDS011;44781;53.444;14.476;2023-05-18T03:53:22;8.60;;;1.80;;
58990;SDS011;44781;53.444;14.476;2023-05-18T03:55:50;6.90;;;1.90;;
58990;SDS011;44781;53.444;14.476;2023-05-18T03:58:17;6.40;;;1.80;;
58990;SDS011;44781;53.444;14.476;2023-05-18T04:00:52;5.70;;;1.90;;
58990;SDS011;44781;53.444;14.476;2023-05-18T04:03:22;8.50;;;2.20;;
58990;SDS011;44781;53.444;14.476;2023-05-18T04:05:51;8.30;;;2.80;;
58990;SDS011;44781;53.444;14.476;2023-05-18T04:08:19;7.40;;;2.20;;
58990;SDS011;44781;53.444;14.476;2023-05-18T04:10:46;8.00;;;2.00;;
58990;SDS011;44781;53.444;14.476;2023-05-18T04:13:13;7.90;;;2.30;;
58990;SDS011;44781;53.444;14.476;2023-05-18T04:15:40;8.50;;;2.40;;
58990;SDS011;44781;53.444;14.476;2023-05-18T04:18:07;7.10;;;2.10;;
58990;SDS011;44781;53.444;14.476;2023-05-18T04:20:33;5.40;;;1.90;;
58990;SDS011;44781;53.444;14.476;2023-05-18T04:23:00;6.00;;;2.00;;
58990;SDS011;44781;53.444;14.476;2023-05-18T04:25:29;8.00;;;2.10;;
58990;SDS011;44781;53.444;14.476;2023-05-18T04:27:56;8.60;;;2.40;;
58990;SDS011;44781;53.444;14.476;2023-05-18T04:30:25;7.20;;;2.80;;
58990;SDS011;44781;53.444;14.476;2023-05-18T04:32:56;8.50;;;2.30;;
58990;SDS011;44781;53.444;14.476;2023-05-18T04:37:54;6.40;;;2.00;;
58990;SDS011;44781;53.444;14.476;2023-05-18T04:40:21;9.70;;;2.40;;
58990;SDS011;44781;53.444;14.476;2023-05-18T04:42:51;8.20;;;2.10;;
58990;SDS011;44781;53.444;14.476;2023-05-18T04:45:27;8.60;;;2.00;;
58990;SDS011;44781;53.444;14.476;2023-05-18T04:47:57;8.60;;;1.90;;
58990;SDS011;44781;53.444;14.476;2023-05-18T04:50:24;8.00;;;2.00;;
58990;SDS011;44781;53.444;14.476;2023-05-18T04:52:53;9.70;;;2.70;;
58990;SDS011;44781;53.444;14.476;2023-05-18T04:55:25;8.20;;;2.20;;
58990;SDS011;44781;53.444;14.476;2023-05-18T04:57:56;9.70;;;2.60;;
58990;SDS011;44781;53.444;14.476;2023-05-18T05:00:27;8.80;;;2.30;;
58990;SDS011;44781;53.444;14.476;2023-05-18T05:02:56;12.10;;;2.20;;
58990;SDS011;44781;53.444;14.476;2023-05-18T05:05:24;7.50;;;2.20;;
58990;SDS011;44781;53.444;14.476;2023-05-18T05:07:52;9.10;;;2.30;;
58990;SDS011;44781;53.444;14.476;2023-05-18T05:10:20;12.00;;;2.50;;
58990;SDS011;44781;53.444;14.476;2023-05-18T05:12:50;6.90;;;2.40;;
58990;SDS011;44781;53.444;14.476;2023-05-18T05:15:17;6.10;;;1.80;;
58990;SDS011;44781;53.444;14.476;2023-05-18T05:17:46;9.10;;;1.90;;
58990;SDS011;44781;53.444;14.476;2023-05-18T05:20:13;6.80;;;1.90;;
58990;SDS011;44781;53.444;14.476;2023-05-18T05:22:42;6.80;;;2.30;;
58990;SDS011;44781;53.444;14.476;2023-05-18T05:25:11;9.10;;;2.10;;
58990;SDS011;44781;53.444;14.476;2023-05-18T05:27:39;8.40;;;1.90;;
58990;SDS011;44781;53.444;14.476;2023-05-18T05:30:08;9.80;;;2.60;;
58990;SDS011;44781;53.444;14.476;2023-05-18T05:32:37;8.10;;;2.60;;
58990;SDS011;44781;53.444;14.476;2023-05-18T05:35:05;8.20;;;2.10;;
58990;SDS011;44781;53.444;14.476;2023-05-18T05:37:34;6.40;;;2.10;;
58990;SDS011;44781;53.444;14.476;2023-05-18T05:40:01;8.20;;;2.20;;
58990;SDS011;44781;53.444;14.476;2023-05-18T05:42:34;10.00;;;2.00;;
58990;SDS011;44781;53.444;14.476;2023-05-18T05:45:02;6.70;;;1.70;;
58990;SDS011;44781;53.444;14.476;2023-05-18T05:47:33;8.30;;;2.00;;
58990;SDS011;44781;53.444;14.476;2023-05-18T05:50:00;10.80;;;2.90;;
58990;SDS011;44781;53.444;14.476;2023-05-18T05:52:27;8.90;;;2.70;;
58990;SDS011;44781;53.444;14.476;2023-05-18T05:54:55;8.60;;;2.30;;
58990;SDS011;44781;53.444;14.476;2023-05-18T05:57:22;6.50;;;2.00;;
58990;SDS011;44781;53.444;14.476;2023-05-18T05:59:49;9.70;;;2.30;;
58990;SDS011;44781;53.444;14.476;2023-05-18T06:02:17;8.40;;;2.20;;
58990;SDS011;44781;53.444;14.476;2023-05-18T06:04:45;8.30;;;2.10;;
58990;SDS011;44781;53.444;14.476;2023-05-18T06:07:12;8.10;;;1.80;;
58990;SDS011;44781;53.444;14.476;2023-05-18T06:09:40;10.00;;;2.30;;
58990;SDS011;44781;53.444;14.476;2023-05-18T06:12:07;6.60;;;2.20;;
58990;SDS011;44781;53.444;14.476;2023-05-18T06:14:35;7.80;;;2.00;;
58990;SDS011;44781;53.444;14.476;2023-05-18T06:17:04;7.00;;;2.00;;
58990;SDS011;44781;53.444;14.476;2023-05-18T06:19:31;7.90;;;2.20;;
58990;SDS011;44781;53.444;14.476;2023-05-18T06:21:59;8.80;;;2.20;;
58990;SDS011;44781;53.444;14.476;2023-05-18T06:24:28;6.80;;;2.40;;
58990;SDS011;44781;53.444;14.476;2023-05-18T06:27:30;8.70;;;2.50;;
58990;SDS011;44781;53.444;14.476;2023-05-18T06:30:14;10.10;;;2.00;;
58990;SDS011;44781;53.444;14.476;2023-05-18T06:32:58;10.10;;;2.00;;
58990;SDS011;44781;53.444;14.476;2023-05-18T06:35:25;8.90;;;2.00;;
58990;SDS011;44781;53.444;14.476;2023-05-18T06:37:53;8.40;;;2.30;;
58990;SDS011;44781;53.444;14.476;2023-05-18T06:40:19;8.60;;;2.10;;
58990;SDS011;44781;53.444;14.476;2023-05-18T06:42:47;6.50;;;2.30;;
58990;SDS011;44781;53.444;14.476;2023-05-18T06:45:40;9.90;;;2.50;;
58990;SDS011;44781;53.444;14.476;2023-05-18T06:48:12;8.00;;;1.80;;
58990;SDS011;44781;53.444;14.476;2023-05-18T06:50:40;9.30;;;2.90;;
58990;SDS011;44781;53.444;14.476;2023-05-18T06:53:07;9.00;;;2.00;;
58990;SDS011;44781;53.444;14.476;2023-05-18T06:55:34;8.90;;;2.30;;
58990;SDS011;44781;53.444;14.476;2023-05-18T06:58:01;8.90;;;2.30;;
58990;SDS011;44781;53.444;14.476;2023-05-18T07:00:30;7.70;;;2.00;;
58990;SDS011;44781;53.444;14.476;2023-05-18T07:02:58;7.80;;;1.70;;
58990;SDS011;44781;53.444;14.476;2023-05-18T07:05:25;8.40;;;1.60;;
58990;SDS011;44781;53.444;14.476;2023-05-18T07:07:52;7.80;;;1.90;;
58990;SDS011;44781;53.444;14.476;2023-05-18T07:10:19;5.70;;;1.60;;
58990;SDS011;44781;53.444;14.476;2023-05-18T07:12:48;8.80;;;1.80;;
58990;SDS011;44781;53.444;14.476;2023-05-18T07:15:15;8.60;;;2.00;;
58990;SDS011;44781;53.444;14.476;2023-05-18T07:17:42;7.00;;;1.80;;
58990;SDS011;44781;53.444;14.476;2023-05-18T07:20:10;7.20;;;1.40;;
58990;SDS011;44781;53.444;14.476;2023-05-18T07:22:37;9.80;;;1.70;;
58990;SDS011;44781;53.444;14.476;2023-05-18T07:25:05;4.40;;;1.40;;
58990;SDS011;44781;53.444;14.476;2023-05-18T07:27:32;6.90;;;1.60;;
58990;SDS011;44781;53.444;14.476;2023-05-18T07:30:00;6.00;;;1.30;;
58990;SDS011;44781;53.444;14.476;2023-05-18T07:32:26;4.50;;;1.50;;
58990;SDS011;44781;53.444;14.476;2023-05-18T07:34:53;8.00;;;1.50;;
58990;SDS011;44781;53.444;14.476;2023-05-18T07:37:21;6.50;;;1.00;;
58990;SDS011;44781;53.444;14.476;2023-05-18T07:39:47;5.40;;;1.20;;
58990;SDS011;44781;53.444;14.476;2023-05-18T07:42:14;4.60;;;1.30;;
58990;SDS011;44781;53.444;14.476;2023-05-18T07:44:41;7.70;;;1.20;;
58990;SDS011;44781;53.444;14.476;2023-05-18T07:47:09;6.60;;;1.30;;
58990;SDS011;44781;53.444;14.476;2023-05-18T07:49:37;7.20;;;1.30;;
58990;SDS011;44781;53.444;14.476;2023-05-18T07:54:35;5.40;;;1.40;;
58990;SDS011;44781;53.444;14.476;2023-05-18T07:57:02;6.50;;;1.30;;
58990;SDS011;44781;53.444;14.476;2023-05-18T07:59:29;7.90;;;1.20;;
58990;SDS011;44781;53.444;14.476;2023-05-18T08:01:56;8.90;;;1.60;;
58990;SDS011;44781;53.444;14.476;2023-05-18T08:04:28;6.60;;;1.40;;
58990;SDS011;44781;53.444;14.476;2023-05-18T08:06:55;5.50;;;1.30;;
58990;SDS011;44781;53.444;14.476;2023-05-18T08:09:26;5.30;;;1.10;;
58990;SDS011;44781;53.444;14.476;2023-05-18T08:11:53;4.50;;;1.10;;
58990;SDS011;44781;53.444;14.476;2023-05-18T08:14:20;3.90;;;1.10;;
58990;SDS011;44781;53.444;14.476;2023-05-18T08:16:47;5.00;;;1.50;;
58990;SDS011;44781;53.444;14.476;2023-05-18T08:19:14;4.90;;;1.10;;
58990;SDS011;44781;53.444;14.476;2023-05-18T08:21:41;6.40;;;1.10;;
58990;SDS011;44781;53.444;14.476;2023-05-18T08:24:11;6.10;;;1.60;;
58990;SDS011;44781;53.444;14.476;2023-05-18T08:26:38;4.10;;;0.80;;
58990;SDS011;44781;53.444;14.476;2023-05-18T08:29:05;28.90;;;3.50;;
58990;SDS011;44781;53.444;14.476;2023-05-18T08:31:36;7.40;;;1.50;;
58990;SDS011;44781;53.444;14.476;2023-05-18T08:34:04;9.10;;;2.20;;
58990;SDS011;44781;53.444;14.476;2023-05-18T08:36:35;6.10;;;1.70;;
58990;SDS011;44781;53.444;14.476;2023-05-18T08:41:31;7.40;;;2.20;;
58990;SDS011;44781;53.444;14.476;2023-05-18T08:44:05;6.20;;;1.80;;
58990;SDS011;44781;53.444;14.476;2023-05-18T08:46:39;4.70;;;1.40;;
58990;SDS011;44781;53.444;14.476;2023-05-18T08:49:14;4.10;;;1.40;;
58990;SDS011;44781;53.444;14.476;2023-05-18T08:51:47;6.60;;;1.60;;
58990;SDS011;44781;53.444;14.476;2023-05-18T08:54:22;6.90;;;2.00;;
58990;SDS011;44781;53.444;14.476;2023-05-18T08:56:49;6.50;;;1.60;;
58990;SDS011;44781;53.444;14.476;2023-05-18T08:59:21;6.30;;;1.80;;
58990;SDS011;44781;53.444;14.476;2023-05-18T09:01:51;6.60;;;2.10;;
58990;SDS011;44781;53.444;14.476;2023-05-18T09:04:20;5.70;;;1.90;;
58990;SDS011;44781;53.444;14.476;2023-05-18T09:06:47;8.10;;;2.40;;
58990;SDS011;44781;53.444;14.476;2023-05-18T09:09:15;7.90;;;2.90;;
58990;SDS011;44781;53.444;14.476;2023-05-18T09:11:44;7.00;;;3.40;;
58990;SDS011;44781;53.444;14.476;2023-05-18T09:14:13;7.80;;;3.80;;
58990;SDS011;44781;53.444;14.476;2023-05-18T09:16:39;11.30;;;6.20;;
58990;SDS011;44781;53.444;14.476;2023-05-18T09:19:06;11.00;;;6.30;;
58990;SDS011;44781;53.444;14.476;2023-05-18T09:21:36;13.70;;;6.90;;
58990;SDS011;44781;53.444;14.476;2023-05-18T09:24:02;11.90;;;6.40;;
58990;SDS011;44781;53.444;14.476;2023-05-18T09:26:30;11.50;;;6.10;;
58990;SDS011;44781;53.444;14.476;2023-05-18T09:28:58;12.60;;;7.00;;
58990;SDS011;44781;53.444;14.476;2023-05-18T09:31:28;11.80;;;6.50;;
58990;SDS011;44781;53.444;14.476;2023-05-18T09:33:57;10.80;;;6.80;;
58990;SDS011;44781;53.444;14.476;2023-05-18T09:36:24;10.60;;;6.30;;
58990;SDS011;44781;53.444;14.476;2023-05-18T09:38:51;10.80;;;6.80;;
58990;SDS011;44781;53.444;14.476;2023-05-18T09:41:18;13.30;;;7.70;;
58990;SDS011;44781;53.444;14.476;2023-05-18T09:43:48;15.90;;;7.10;;
58990;SDS011;44781;53.444;14.476;2023-05-18T09:46:16;10.20;;;5.50;;
58990;SDS011;44781;53.444;14.476;2023-05-18T09:48:51;11.10;;;4.50;;
58990;SDS011;44781;53.444;14.476;2023-05-18T09:51:18;9.60;;;3.60;;
58990;SDS011;44781;53.444;14.476;2023-05-18T09:53:54;11.10;;;4.00;;
58990;SDS011;44781;53.444;14.476;2023-05-18T09:56:22;8.70;;;3.10;;
58990;SDS011;44781;53.444;14.476;2023-05-18T09:58:51;9.90;;;2.90;;
58990;SDS011;44781;53.444;14.476;2023-05-18T10:01:18;8.70;;;3.30;;
58990;SDS011;44781;53.444;14.476;2023-05-18T10:03:45;9.00;;;3.00;;
58990;SDS011;44781;53.444;14.476;2023-05-18T10:06:15;10.30;;;3.40;;
58990;SDS011;44781;53.444;14.476;2023-05-18T10:08:46;7.40;;;3.00;;
58990;SDS011;44781;53.444;14.476;2023-05-18T10:11:16;10.20;;;2.70;;
58990;SDS011;44781;53.444;14.476;2023-05-18T10:13:45;7.70;;;2.80;;
58990;SDS011;44781;53.444;14.476;2023-05-18T10:16:12;8.20;;;3.50;;
58990;SDS011;44781;53.444;14.476;2023-05-18T10:18:41;9.30;;;4.70;;
58990;SDS011;44781;53.444;14.476;2023-05-18T10:21:08;13.20;;;5.40;;
58990;SDS011;44781;53.444;14.476;2023-05-18T10:23:38;10.60;;;4.80;;
58990;SDS011;44781;53.444;14.476;2023-05-18T10:26:06;10.40;;;4.50;;
58990;SDS011;44781;53.444;14.476;2023-05-18T10:28:44;9.50;;;4.70;;
58990;SDS011;44781;53.444;14.476;2023-05-18T10:31:15;10.20;;;4.90;;
58990;SDS011;44781;53.444;14.476;2023-05-18T10:33:43;13.60;;;5.10;;
58990;SDS011;44781;53.444;14.476;2023-05-18T10:36:11;8.70;;;4.00;;
58990;SDS011;44781;53.444;14.476;2023-05-18T10:38:38;10.00;;;4.00;;
58990;SDS011;44781;53.444;14.476;2023-05-18T10:41:10;10.80;;;4.70;;
58990;SDS011;44781;53.444;14.476;2023-05-18T10:43:40;10.20;;;4.60;;
58990;SDS011;44781;53.444;14.476;2023-05-18T10:46:10;10.70;;;4.90;;
58990;SDS011;44781;53.444;14.476;2023-05-18T10:48:39;11.70;;;4.70;;
58990;SDS011;44781;53.444;14.476;2023-05-18T10:51:06;12.40;;;4.90;;
58990;SDS011;44781;53.444;14.476;2023-05-18T10:53:35;9.70;;;4.70;;
58990;SDS011;44781;53.444;14.476;2023-05-18T10:56:03;10.80;;;4.60;;
58990;SDS011;44781;53.444;14.476;2023-05-18T10:58:30;9.00;;;3.90;;
58990;SDS011;44781;53.444;14.476;2023-05-18T11:00:59;11.40;;;5.10;;
58990;SDS011;44781;53.444;14.476;2023-05-18T11:03:28;9.30;;;4.20;;
58990;SDS011;44781;53.444;14.476;2023-05-18T11:08:46;8.90;;;4.30;;
58990;SDS011;44781;53.444;14.476;2023-05-18T11:11:15;7.50;;;3.40;;
58990;SDS011;44781;53.444;14.476;2023-05-18T11:13:48;8.30;;;3.90;;
58990;SDS011;44781;53.444;14.476;2023-05-18T11:16:17;9.20;;;3.60;;
58990;SDS011;44781;53.444;14.476;2023-05-18T11:18:49;9.70;;;3.40;;
58990;SDS011;44781;53.444;14.476;2023-05-18T11:26:50;9.30;;;3.40;;
58990;SDS011;44781;53.444;14.476;2023-05-18T11:29:18;8.60;;;2.80;;
58990;SDS011;44781;53.444;14.476;2023-05-18T11:37:15;6.50;;;2.70;;
58990;SDS011;44781;53.444;14.476;2023-05-18T11:40:01;7.60;;;2.40;;
58990;SDS011;44781;53.444;14.476;2023-05-18T11:42:31;7.50;;;2.70;;
58990;SDS011;44781;53.444;14.476;2023-05-18T11:45:04;7.70;;;2.50;;
58990;SDS011;44781;53.444;14.476;2023-05-18T11:47:33;7.70;;;1.90;;
58990;SDS011;44781;53.444;14.476;2023-05-18T11:50:02;7.40;;;1.80;;
58990;SDS011;44781;53.444;14.476;2023-05-18T11:52:32;7.30;;;2.10;;
58990;SDS011;44781;53.444;14.476;2023-05-18T11:55:18;6.30;;;3.00;;
58990;SDS011;44781;53.444;14.476;2023-05-18T11:57:47;7.10;;;2.60;;
58990;SDS011;44781;53.444;14.476;2023-05-18T12:00:18;6.90;;;2.30;;
58990;SDS011;44781;53.444;14.476;2023-05-18T12:02:46;6.40;;;2.30;;
58990;SDS011;44781;53.444;14.476;2023-05-18T12:05:14;6.90;;;2.00;;
58990;SDS011;44781;53.444;14.476;2023-05-18T12:07:41;6.00;;;1.80;;
58990;SDS011;44781;53.444;14.476;2023-05-18T12:10:10;5.10;;;1.90;;
58990;SDS011;44781;53.444;14.476;2023-05-18T12:12:40;6.60;;;1.50;;
58990;SDS011;44781;53.444;14.476;2023-05-18T12:15:09;7.30;;;1.70;;
58990;SDS011;44781;53.444;14.476;2023-05-18T12:17:40;4.70;;;1.50;;
58990;SDS011;44781;53.444;14.476;2023-05-18T12:20:15;7.10;;;2.00;;
58990;SDS011;44781;53.444;14.476;2023-05-18T12:22:43;5.80;;;1.80;;
58990;SDS011;44781;53.444;14.476;2023-05-18T12:25:11;5.00;;;1.40;;
58990;SDS011;44781;53.444;14.476;2023-05-18T12:27:39;4.30;;;1.10;;
58990;SDS011;44781;53.444;14.476;2023-05-18T12:30:10;6.30;;;1.70;;
58990;SDS011;44781;53.444;14.476;2023-05-18T12:32:42;4.50;;;1.20;;
58990;SDS011;44781;53.444;14.476;2023-05-18T12:35:14;4.30;;;1.00;;
58990;SDS011;44781;53.444;14.476;2023-05-18T12:37:44;5.20;;;1.20;;
58990;SDS011;44781;53.444;14.476;2023-05-18T12:40:13;5.30;;;1.50;;
58990;SDS011;44781;53.444;14.476;2023-05-18T12:42:50;4.20;;;1.30;;
58990;SDS011;44781;53.444;14.476;2023-05-18T12:45:31;5.80;;;1.20;;
58990;SDS011;44781;53.444;14.476;2023-05-18T12:50:44;7.30;;;2.00;;
58990;SDS011;44781;53.444;14.476;2023-05-18T12:53:11;5.00;;;1.10;;
58990;SDS011;44781;53.444;14.476;2023-05-18T12:55:40;5.80;;;1.60;;
58990;SDS011;44781;53.444;14.476;2023-05-18T12:58:11;6.70;;;2.10;;
58990;SDS011;44781;53.444;14.476;2023-05-18T13:00:42;6.90;;;1.40;;
58990;SDS011;44781;53.444;14.476;2023-05-18T13:03:13;5.10;;;1.30;;
58990;SDS011;44781;53.444;14.476;2023-05-18T13:05:42;8.50;;;1.90;;
58990;SDS011;44781;53.444;14.476;2023-05-18T13:08:14;3.70;;;1.10;;
58990;SDS011;44781;53.444;14.476;2023-05-18T13:10:44;4.10;;;1.30;;
58990;SDS011;44781;53.444;14.476;2023-05-18T13:13:14;6.70;;;1.70;;
58990;SDS011;44781;53.444;14.476;2023-05-18T13:15:42;6.70;;;1.30;;
58990;SDS011;44781;53.444;14.476;2023-05-18T13:18:10;4.50;;;1.00;;
58990;SDS011;44781;53.444;14.476;2023-05-18T13:20:38;5.30;;;1.40;;
58990;SDS011;44781;53.444;14.476;2023-05-18T13:23:08;5.40;;;1.60;;
58990;SDS011;44781;53.444;14.476;2023-05-18T13:25:37;5.70;;;1.10;;
58990;SDS011;44781;53.444;14.476;2023-05-18T13:28:05;5.60;;;1.30;;
58990;SDS011;44781;53.444;14.476;2023-05-18T13:30:34;6.70;;;1.20;;
58990;SDS011;44781;53.444;14.476;2023-05-18T13:33:02;4.60;;;1.20;;
58990;SDS011;44781;53.444;14.476;2023-05-18T13:35:30;4.10;;;1.00;;
58990;SDS011;44781;53.444;14.476;2023-05-18T13:37:56;5.20;;;1.00;;
58990;SDS011;44781;53.444;14.476;2023-05-18T13:40:23;4.50;;;1.10;;
58990;SDS011;44781;53.444;14.476;2023-05-18T13:42:50;6.60;;;1.20;;
58990;SDS011;44781;53.444;14.476;2023-05-18T13:45:18;5.60;;;1.40;;
58990;SDS011;44781;53.444;14.476;2023-05-18T13:47:48;7.50;;;1.80;;
58990;SDS011;44781;53.444;14.476;2023-05-18T13:50:22;5.50;;;1.30;;
58990;SDS011;44781;53.444;14.476;2023-05-18T13:52:51;5.50;;;1.20;;
58990;SDS011;44781;53.444;14.476;2023-05-18T13:55:18;5.40;;;1.20;;
58990;SDS011;44781;53.444;14.476;2023-05-18T13:57:46;4.70;;;1.20;;
58990;SDS011;44781;53.444;14.476;2023-05-18T14:00:15;3.30;;;1.00;;
58990;SDS011;44781;53.444;14.476;2023-05-18T14:02:43;7.00;;;1.70;;
58990;SDS011;44781;53.444;14.476;2023-05-18T14:05:10;8.30;;;1.80;;
58990;SDS011;44781;53.444;14.476;2023-05-18T14:07:38;5.30;;;1.30;;
58990;SDS011;44781;53.444;14.476;2023-05-18T14:10:07;5.20;;;1.60;;
58990;SDS011;44781;53.444;14.476;2023-05-18T14:12:35;6.50;;;1.60;;
58990;SDS011;44781;53.444;14.476;2023-05-18T14:15:03;5.50;;;1.60;;
58990;SDS011;44781;53.444;14.476;2023-05-18T14:17:31;7.80;;;1.70;;
58990;SDS011;44781;53.444;14.476;2023-05-18T14:19:58;6.90;;;2.00;;
58990;SDS011;44781;53.444;14.476;2023-05-18T14:22:25;9.90;;;1.80;;
58990;SDS011;44781;53.444;14.476;2023-05-18T14:24:53;9.00;;;1.90;;
58990;SDS011;44781;53.444;14.476;2023-05-18T14:27:20;7.90;;;2.20;;
58990;SDS011;44781;53.444;14.476;2023-05-18T14:29:47;7.40;;;2.60;;
58990;SDS011;44781;53.444;14.476;2023-05-18T14:32:15;10.50;;;3.10;;
58990;SDS011;44781;53.444;14.476;2023-05-18T14:34:42;9.50;;;2.30;;
58990;SDS011;44781;53.444;14.476;2023-05-18T14:37:10;5.50;;;1.60;;
58990;SDS011;44781;53.444;14.476;2023-05-18T14:39:38;6.80;;;2.20;;
58990;SDS011;44781;53.444;14.476;2023-05-18T14:42:05;8.10;;;2.10;;
58990;SDS011;44781;53.444;14.476;2023-05-18T14:44:32;7.50;;;2.20;;
58990;SDS011;44781;53.444;14.476;2023-05-18T14:46:59;6.60;;;2.10;;
58990;SDS011;44781;53.444;14.476;2023-05-18T14:49:26;6.60;;;2.00;;
58990;SDS011;44781;53.444;14.476;2023-05-18T14:51:55;5.00;;;1.80;;
58990;SDS011;44781;53.444;14.476;2023-05-18T14:54:22;6.40;;;1.70;;
58990;SDS011;44781;53.444;14.476;2023-05-18T14:56:51;8.20;;;2.00;;
58990;SDS011;44781;53.444;14.476;2023-05-18T14:59:18;7.20;;;2.00;;
58990;SDS011;44781;53.444;14.476;2023-05-18T15:01:46;9.10;;;2.20;;
58990;SDS011;44781;53.444;14.476;2023-05-18T15:04:13;6.50;;;1.80;;
58990;SDS011;44781;53.444;14.476;2023-05-18T15:06:40;6.90;;;2.10;;
58990;SDS011;44781;53.444;14.476;2023-05-18T15:09:07;8.10;;;1.90;;
58990;SDS011;44781;53.444;14.476;2023-05-18T15:11:35;6.00;;;1.90;;
58990;SDS011;44781;53.444;14.476;2023-05-18T15:14:03;7.90;;;1.60;;
58990;SDS011;44781;53.444;14.476;2023-05-18T15:16:30;6.80;;;1.60;;
58990;SDS011;44781;53.444;14.476;2023-05-18T15:18:57;10.90;;;2.60;;
58990;SDS011;44781;53.444;14.476;2023-05-18T15:21:24;8.00;;;1.90;;